Time;durP1;ratioP1;P1;durP2;ratioP2;P2;SDS_P1;SDS_P2;PMS_P1;PMS_P2;Temp;Humidity;BMP_temperature;BMP_pressure;BME280_temperature;BME280_humidity;BME280_pressure;Samples;Min_cycle;Max_cycle;Signal;HPM_P1;HPM_P2
2023/05/25 00:00:56;;;;;;;16.77;5.40;;;11.00;99.90;;;;;;5201561;28;20187;-48
2023/05/25 00:03:27;;;;;;;6.20;4.43;;;11.00;99.90;;;;;;5201586;28;20183;-48
2023/05/25 00:06:01;;;;;;;15.17;5.00;;;11.00;99.90;;;;;;5205326;28;20523;-47
2023/05/25 00:08:31;;;;;;;13.83;5.50;;;11.00;99.90;;;;;;5201669;28;20496;-48
2023/05/25 00:11:02;;;;;;;13.67;4.77;;;11.10;99.90;;;;;;5199379;28;20547;-47
2023/05/25 00:13:33;;;;;;;9.53;4.67;;;11.10;99.90;;;;;;5199811;28;20195;-48
2023/05/25 00:16:04;;;;;;;10.30;4.63;;;11.20;99.90;;;;;;5203546;28;20270;-49
2023/05/25 00:18:36;;;;;;;16.13;5.07;;;11.30;99.90;;;;;;5200163;28;20404;-49
2023/05/25 00:21:07;;;;;;;8.20;4.80;;;11.30;99.90;;;;;;5200694;28;21093;-48
2023/05/25 00:23:37;;;;;;;8.73;5.00;;;11.40;99.90;;;;;;5203304;28;20442;-48
2023/05/25 00:26:08;;;;;;;5.67;4.83;;;11.40;99.90;;;;;;5202181;28;20191;-49
2023/05/25 00:28:39;;;;;;;11.63;5.30;;;11.50;99.90;;;;;;5199170;28;20575;-48
2023/05/25 00:31:09;;;;;;;9.43;4.70;;;11.60;99.90;;;;;;5202210;28;20207;-48
2023/05/25 00:33:40;;;;;;;5.67;4.53;;;11.60;99.90;;;;;;5199891;28;20180;-48
2023/05/25 00:36:11;;;;;;;19.30;5.00;;;11.60;99.90;;;;;;5206764;28;20296;-48
2023/05/25 00:38:41;;;;;;;14.97;5.87;;;11.70;99.90;;;;;;5205122;28;20214;-49
2023/05/25 00:41:12;;;;;;;8.43;4.50;;;11.70;99.90;;;;;;5203459;28;20183;-48
2023/05/25 00:43:46;;;;;;;8.47;4.40;;;11.70;99.90;;;;;;5202384;28;23150;-47
2023/05/25 00:46:16;;;;;;;7.60;4.60;;;11.80;99.90;;;;;;5201272;28;20574;-48
2023/05/25 00:48:47;;;;;;;11.50;4.23;;;11.70;99.90;;;;;;5199424;28;20461;-47
2023/05/25 00:51:18;;;;;;;13.43;4.17;;;11.70;99.90;;;;;;5215679;28;20210;-48
2023/05/25 00:53:48;;;;;;;9.77;5.53;;;11.70;99.90;;;;;;5200590;28;20202;-47
2023/05/25 00:56:25;;;;;;;10.40;4.97;;;11.70;99.90;;;;;;5218451;28;20179;-48
2023/05/25 00:58:58;;;;;;;8.53;4.40;;;11.60;99.90;;;;;;5205946;28;20224;-48
2023/05/25 01:01:32;;;;;;;12.07;5.30;;;11.40;99.90;;;;;;5184266;28;20948;-49
2023/05/25 01:04:13;;;;;;;7.00;3.90;;;11.50;99.90;;;;;;5198865;28;20490;-48
2023/05/25 01:06:47;;;;;;;9.77;4.50;;;11.40;99.90;;;;;;5207571;28;20808;-48
2023/05/25 01:09:21;;;;;;;10.87;4.10;;;11.30;99.90;;;;;;5203908;28;20540;-48
2023/05/25 01:11:52;;;;;;;8.53;4.00;;;11.30;99.90;;;;;;5207384;28;20461;-48
2023/05/25 01:14:24;;;;;;;12.70;4.13;;;11.20;99.90;;;;;;5205743;28;20429;-48
2023/05/25 01:16:55;;;;;;;14.20;5.03;;;11.10;99.90;;;;;;5209146;28;20433;-49
2023/05/25 01:19:25;;;;;;;7.80;4.23;;;11.10;99.90;;;;;;5201213;28;20469;-49
2023/05/25 01:22:21;;;;;;;12.27;4.83;;;11.10;99.90;;;;;;5202486;28;20465;-47
2023/05/25 01:24:53;;;;;;;6.80;3.93;;;11.00;99.90;;;;;;5203690;28;20715;-47
2023/05/25 01:27:58;;;;;;;5.67;3.70;;;10.90;99.90;;;;;;5204838;28;20464;-48
2023/05/25 01:30:31;;;;;;;6.77;3.60;;;10.90;99.90;;;;;;5174047;28;20540;-48
2023/05/25 01:33:02;;;;;;;5.83;4.13;;;10.90;99.90;;;;;;5203688;28;20508;-48
2023/05/25 01:35:33;;;;;;;4.93;4.47;;;10.80;99.90;;;;;;5187783;28;21041;-47
2023/05/25 01:38:04;;;;;;;9.50;4.63;;;10.80;99.90;;;;;;5208189;28;20206;-48
2023/05/25 01:40:35;;;;;;;20.10;5.10;;;10.80;99.90;;;;;;5209991;28;20441;-49
2023/05/25 01:43:05;;;;;;;5.70;4.47;;;10.80;99.90;;;;;;5207171;28;20473;-48
2023/05/25 01:45:37;;;;;;;9.37;4.63;;;10.80;99.90;;;;;;5203177;28;20190;-48
2023/05/25 01:48:28;;;;;;;10.23;4.60;;;10.70;99.90;;;;;;5202762;28;20696;-49
2023/05/25 01:51:12;;;;;;;9.70;4.60;;;10.70;99.90;;;;;;5201694;28;20453;-48
2023/05/25 01:53:51;;;;;;;5.00;4.23;;;10.70;99.90;;;;;;5200772;28;21729;-49
2023/05/25 01:56:25;;;;;;;10.27;4.70;;;10.70;99.90;;;;;;5209242;28;20491;-48
2023/05/25 01:59:00;;;;;;;7.63;4.70;;;10.60;99.90;;;;;;5203829;28;20449;-48
2023/05/25 02:01:33;;;;;;;10.23;3.93;;;10.60;99.90;;;;;;5204755;28;20566;-48
2023/05/25 02:04:04;;;;;;;5.70;4.80;;;10.60;99.90;;;;;;5206482;28;20438;-49
2023/05/25 02:06:35;;;;;;;17.20;5.50;;;10.60;99.90;;;;;;5206292;28;20437;-47
2023/05/25 02:09:06;;;;;;;9.60;5.33;;;10.60;99.90;;;;;;5205787;28;20202;-48
2023/05/25 02:11:37;;;;;;;6.73;4.13;;;10.50;99.90;;;;;;5203972;28;20473;-48
2023/05/25 02:14:07;;;;;;;6.90;5.43;;;10.50;99.90;;;;;;5219509;28;20183;-49
2023/05/25 02:16:38;;;;;;;9.83;5.20;;;10.50;99.90;;;;;;5206282;28;20187;-48
2023/05/25 02:19:11;;;;;;;11.20;5.50;;;10.40;99.90;;;;;;5200929;28;20938;-48
2023/05/25 02:21:41;;;;;;;8.40;5.20;;;10.40;99.90;;;;;;5205545;28;20266;-48
2023/05/25 02:24:12;;;;;;;8.97;5.53;;;10.30;99.90;;;;;;5201515;28;20496;-48
2023/05/25 02:26:43;;;;;;;17.00;5.83;;;10.30;99.90;;;;;;5202649;28;20175;-48
2023/05/25 02:29:13;;;;;;;12.40;5.23;;;10.40;99.90;;;;;;5203475;28;20203;-47
2023/05/25 02:31:44;;;;;;;10.50;6.07;;;10.30;99.90;;;;;;5206764;28;20207;-48
2023/05/25 02:34:14;;;;;;;12.90;5.57;;;10.30;99.90;;;;;;5204540;28;20171;-48
2023/05/25 02:36:45;;;;;;;15.40;5.70;;;10.30;99.90;;;;;;5199484;28;20180;-49
2023/05/25 02:39:16;;;;;;;12.23;5.67;;;10.20;99.90;;;;;;5203588;28;20218;-48
2023/05/25 02:41:46;;;;;;;13.90;5.00;;;10.20;99.90;;;;;;5208977;28;20200;-47
2023/05/25 02:44:17;;;;;;;11.23;6.70;;;10.10;99.90;;;;;;5203693;28;20716;-47
2023/05/25 02:46:48;;;;;;;12.00;5.27;;;10.10;99.90;;;;;;5216243;28;20187;-49
2023/05/25 02:49:18;;;;;;;6.00;4.50;;;10.10;99.90;;;;;;5204925;28;20936;-48
2023/05/25 02:51:49;;;;;;;14.67;5.70;;;10.10;99.90;;;;;;5203533;28;20210;-48
2023/05/25 02:54:20;;;;;;;18.37;5.67;;;10.10;99.90;;;;;;5202207;28;20175;-48
2023/05/25 02:56:50;;;;;;;15.97;5.90;;;10.00;99.90;;;;;;5202444;28;20774;-48
2023/05/25 02:59:21;;;;;;;6.30;4.73;;;10.00;99.90;;;;;;5202057;28;20708;-48
2023/05/25 03:01:51;;;;;;;11.17;5.37;;;10.00;99.90;;;;;;5201587;28;20210;-48
2023/05/25 03:04:22;;;;;;;12.47;5.70;;;10.00;99.90;;;;;;5203653;28;20280;-48
2023/05/25 03:06:52;;;;;;;6.93;4.90;;;10.00;99.90;;;;;;5203227;28;20203;-48
2023/05/25 03:09:23;;;;;;;21.23;5.93;;;10.00;99.90;;;;;;5201010;28;20337;-49
2023/05/25 03:11:54;;;;;;;7.00;5.33;;;10.00;99.90;;;;;;5205300;28;20289;-48
2023/05/25 03:14:24;;;;;;;7.70;5.50;;;10.00;99.90;;;;;;5203743;28;20289;-48
2023/05/25 03:16:55;;;;;;;7.80;5.77;;;10.00;99.90;;;;;;5210815;28;20312;-48
2023/05/25 03:19:26;;;;;;;13.40;6.47;;;10.00;99.90;;;;;;5201106;28;20684;-47
2023/05/25 03:21:56;;;;;;;14.27;6.27;;;10.00;99.90;;;;;;5203822;28;20540;-47
2023/05/25 03:24:27;;;;;;;7.80;5.40;;;10.10;99.90;;;;;;5202493;28;20194;-47
2023/05/25 03:26:58;;;;;;;11.40;5.90;;;10.10;99.90;;;;;;5203558;28;20195;-48
2023/05/25 03:29:28;;;;;;;6.50;5.23;;;10.10;99.90;;;;;;5203519;28;20450;-48
2023/05/25 03:31:59;;;;;;;13.43;6.50;;;10.10;99.90;;;;;;5208259;28;20206;-48
2023/05/25 03:34:33;;;;;;;10.70;5.93;;;10.10;99.90;;;;;;5199829;28;20183;-48
2023/05/25 03:37:04;;;;;;;20.03;6.83;;;10.10;99.90;;;;;;5200409;28;20249;-48
2023/05/25 03:39:34;;;;;;;8.53;5.40;;;10.10;99.90;;;;;;5201938;28;20426;-48
2023/05/25 03:42:05;;;;;;;9.90;6.10;;;10.20;99.90;;;;;;5204030;28;20187;-48
2023/05/25 03:44:36;;;;;;;16.60;6.20;;;10.20;99.90;;;;;;5204087;28;20183;-48
2023/05/25 03:47:06;;;;;;;8.80;5.77;;;10.30;99.90;;;;;;5204418;28;20944;-48
2023/05/25 03:49:37;;;;;;;9.17;5.53;;;10.40;99.90;;;;;;5202158;28;20226;-47
2023/05/25 03:52:07;;;;;;;16.77;5.67;;;10.40;99.90;;;;;;5218966;28;20611;-47
2023/05/25 03:54:38;;;;;;;8.20;5.80;;;10.50;99.90;;;;;;5219540;28;20186;-47
2023/05/25 03:57:09;;;;;;;14.53;6.33;;;10.50;99.90;;;;;;5202386;28;20177;-48
2023/05/25 03:59:39;;;;;;;10.00;5.80;;;10.60;99.90;;;;;;5207291;28;20236;-48
2023/05/25 04:02:10;;;;;;;10.80;5.57;;;10.60;99.90;;;;;;5205174;28;20728;-48
2023/05/25 04:04:41;;;;;;;10.23;5.20;;;10.70;99.90;;;;;;5201412;28;20188;-48
2023/05/25 04:07:11;;;;;;;9.03;5.70;;;10.90;99.90;;;;;;5200029;28;20277;-49
2023/05/25 04:09:42;;;;;;;9.83;6.83;;;11.00;99.90;;;;;;5197580;28;20291;-48
2023/05/25 04:12:12;;;;;;;13.80;5.07;;;11.20;99.90;;;;;;5203702;28;20226;-48
2023/05/25 04:14:44;;;;;;;10.10;6.23;;;11.50;99.90;;;;;;5206890;28;20180;-50
2023/05/25 04:17:17;;;;;;;15.53;6.57;;;11.80;99.90;;;;;;5202053;28;20732;-49
2023/05/25 04:19:48;;;;;;;12.93;6.47;;;12.10;99.90;;;;;;5199764;28;20449;-48
2023/05/25 04:22:18;;;;;;;12.00;6.40;;;12.50;99.90;;;;;;5200947;28;20441;-48
2023/05/25 04:24:49;;;;;;;11.33;5.40;;;12.90;99.90;;;;;;5200135;28;20186;-49
2023/05/25 04:27:21;;;;;;;13.40;6.80;;;13.00;99.90;;;;;;5209971;28;20280;-49
2023/05/25 04:29:52;;;;;;;14.53;6.50;;;12.90;99.90;;;;;;5205541;28;20489;-48
2023/05/25 04:32:23;;;;;;;14.20;7.27;;;12.60;99.90;;;;;;5202481;28;20215;-49
2023/05/25 04:34:55;;;;;;;17.63;6.47;;;12.40;99.90;;;;;;5201739;28;20811;-48
2023/05/25 04:37:26;;;;;;;11.60;6.37;;;12.40;99.90;;;;;;5208482;28;20866;-48
2023/05/25 04:39:57;;;;;;;15.77;6.27;;;12.30;99.90;;;;;;5203002;28;20441;-51
2023/05/25 04:42:27;;;;;;;14.37;6.33;;;12.30;99.90;;;;;;5212592;28;20449;-48
2023/05/25 04:44:59;;;;;;;20.23;6.50;;;12.40;99.90;;;;;;5223351;28;20268;-49
2023/05/25 04:47:29;;;;;;;18.20;7.37;;;12.60;99.90;;;;;;5222960;28;20194;-49
2023/05/25 04:50:00;;;;;;;19.53;7.20;;;12.80;99.90;;;;;;5222602;28;20515;-49
2023/05/25 04:52:31;;;;;;;15.80;6.70;;;13.20;99.90;;;;;;5224980;28;20249;-48
2023/05/25 04:55:02;;;;;;;15.47;6.23;;;13.60;99.90;;;;;;5223157;28;20655;-49
2023/05/25 04:57:32;;;;;;;11.60;6.67;;;13.90;99.90;;;;;;5220032;28;20196;-49
2023/05/25 05:00:05;;;;;;;17.00;6.97;;;14.20;99.90;;;;;;5219831;28;20187;-49
2023/05/25 05:02:36;;;;;;;12.93;6.30;;;14.40;99.90;;;;;;5223133;28;20701;-50
2023/05/25 05:05:06;;;;;;;11.47;7.17;;;14.70;99.90;;;;;;5219925;28;20532;-49
2023/05/25 05:07:37;;;;;;;10.03;6.10;;;15.40;99.90;;;;;;5221112;28;20800;-50
2023/05/25 05:10:08;;;;;;;31.83;6.53;;;16.00;99.90;;;;;;5223198;28;20183;-48
2023/05/25 05:12:39;;;;;;;20.13;6.20;;;16.60;99.90;;;;;;5215434;28;20213;-49
2023/05/25 05:15:10;;;;;;;18.33;6.30;;;17.20;99.90;;;;;;5219903;28;20784;-49
2023/05/25 05:17:40;;;;;;;10.00;6.20;;;17.60;99.90;;;;;;5221468;28;20736;-49
2023/05/25 05:20:11;;;;;;;15.00;6.77;;;17.70;99.90;;;;;;5223776;28;20713;-49
2023/05/25 05:22:42;;;;;;;10.77;6.40;;;18.00;99.90;;;;;;5223316;28;20194;-48
2023/05/25 05:25:13;;;;;;;13.20;5.77;;;19.00;99.90;;;;;;5220307;28;20179;-49
2023/05/25 05:27:43;;;;;;;10.70;5.60;;;20.20;96.60;;;;;;5220326;28;20199;-49
2023/05/25 05:30:14;;;;;;;18.33;7.27;;;21.20;91.00;;;;;;5221492;28;20258;-49
2023/05/25 05:32:45;;;;;;;11.93;5.63;;;22.60;74.80;;;;;;5220684;28;20579;-50
2023/05/25 05:35:15;;;;;;;11.87;5.90;;;23.40;68.90;;;;;;5222475;28;20206;-50
2023/05/25 05:37:47;;;;;;;12.67;5.67;;;25.00;60.80;;;;;;5198214;28;20209;-49
2023/05/25 05:40:17;;;;;;;8.50;5.93;;;25.90;53.80;;;;;;5215907;28;20201;-48
2023/05/25 05:42:49;;;;;;;9.30;5.67;;;26.50;50.60;;;;;;5218336;28;21524;-49
2023/05/25 05:45:20;;;;;;;9.53;5.67;;;27.10;49.70;;;;;;5219429;28;20240;-49
2023/05/25 05:47:50;;;;;;;11.23;5.40;;;28.10;46.60;;;;;;5221983;28;20441;-48
2023/05/25 05:50:21;;;;;;;13.63;6.33;;;28.60;44.30;;;;;;5214691;28;20222;-49
2023/05/25 05:52:52;;;;;;;13.70;6.07;;;28.40;44.50;;;;;;5220355;28;20566;-49
2023/05/25 05:55:23;;;;;;;9.53;5.33;;;29.30;43.10;;;;;;5235469;28;20175;-50
2023/05/25 05:57:53;;;;;;;9.97;5.73;;;29.60;40.60;;;;;;5221789;28;20232;-49
2023/05/25 06:00:24;;;;;;;15.23;5.80;;;30.00;40.90;;;;;;5219602;28;20236;-49
2023/05/25 06:02:55;;;;;;;11.73;5.63;;;30.40;39.10;;;;;;5221246;28;20182;-49
2023/05/25 06:05:25;;;;;;;9.93;5.73;;;30.90;38.30;;;;;;5223958;28;20185;-50
2023/05/25 06:07:56;;;;;;;8.13;4.60;;;30.90;36.90;;;;;;5219484;28;20312;-51
2023/05/25 06:10:26;;;;;;;9.73;4.90;;;30.50;37.60;;;;;;5204057;28;20205;-49
2023/05/25 06:12:57;;;;;;;10.13;5.50;;;30.30;37.70;;;;;;5221794;28;20290;-49
2023/05/25 06:15:28;;;;;;;15.10;5.40;;;30.90;37.60;;;;;;5219731;28;20236;-50
2023/05/25 06:17:58;;;;;;;5.90;4.00;;;31.60;37.10;;;;;;5222787;28;20218;-50
2023/05/25 06:20:29;;;;;;;16.83;5.47;;;31.80;35.10;;;;;;5219880;28;20193;-49
2023/05/25 06:23:00;;;;;;;12.70;4.73;;;31.00;35.80;;;;;;5222693;28;20182;-50
2023/05/25 06:25:31;;;;;;;12.50;5.13;;;30.70;35.30;;;;;;5221203;28;20229;-50
2023/05/25 06:28:01;;;;;;;10.93;5.90;;;31.40;35.70;;;;;;5219147;28;20456;-48
2023/05/25 06:30:32;;;;;;;12.77;5.40;;;32.40;34.80;;;;;;5219243;28;20217;-49
2023/05/25 06:33:03;;;;;;;11.40;4.90;;;32.70;33.20;;;;;;5219524;28;20334;-49
2023/05/25 06:35:33;;;;;;;15.93;5.50;;;32.40;33.60;;;;;;5223919;28;20262;-50
2023/05/25 06:38:05;;;;;;;6.10;4.60;;;32.80;33.00;;;;;;5220321;28;20724;-50
2023/05/25 06:40:35;;;;;;;5.60;4.20;;;33.00;33.10;;;;;;5218761;28;20194;-49
2023/05/25 06:43:06;;;;;;;7.87;5.00;;;33.50;32.20;;;;;;5215473;28;20182;-50
2023/05/25 06:45:36;;;;;;;8.23;4.40;;;33.80;32.40;;;;;;5215207;28;20726;-49
2023/05/25 06:48:07;;;;;;;12.20;5.30;;;34.60;30.90;;;;;;5212432;28;21862;-50
2023/05/25 06:50:39;;;;;;;10.53;4.70;;;34.90;30.00;;;;;;5208905;28;20710;-51
2023/05/25 06:53:10;;;;;;;20.87;5.23;;;34.70;29.90;;;;;;5216503;28;20252;-49
2023/05/25 06:55:40;;;;;;;9.13;4.43;;;34.20;30.50;;;;;;5216625;28;20274;-51
2023/05/25 06:58:12;;;;;;;24.30;6.20;;;34.50;30.30;;;;;;5214654;28;20248;-49
2023/05/25 07:00:42;;;;;;;14.27;3.23;;;34.70;29.80;;;;;;5216539;28;20268;-49
2023/05/25 07:03:13;;;;;;;13.40;3.90;;;35.00;29.70;;;;;;5212552;28;20254;-48
2023/05/25 07:05:43;;;;;;;8.63;4.27;;;35.40;29.20;;;;;;5220094;28;20186;-50
2023/05/25 07:08:14;;;;;;;10.07;4.70;;;35.50;28.70;;;;;;5214054;28;20206;-49
2023/05/25 07:10:45;;;;;;;11.52;4.82;;;35.60;28.70;;;;;;5213203;28;20186;-49
2023/05/25 07:13:16;;;;;;;4.53;3.30;;;34.80;28.50;;;;;;5214109;28;20214;-50
2023/05/25 07:15:46;;;;;;;8.70;3.90;;;35.10;28.70;;;;;;5212674;28;20178;-50
2023/05/25 07:18:18;;;;;;;5.57;3.20;;;34.90;28.50;;;;;;5212426;28;20725;-50
2023/05/25 07:20:48;;;;;;;4.37;3.40;;;34.00;28.10;;;;;;5214434;28;20601;-49
2023/05/25 07:23:19;;;;;;;6.13;3.60;;;33.50;29.50;;;;;;5214266;28;20663;-50
2023/05/25 07:25:50;;;;;;;10.33;3.73;;;34.10;28.50;;;;;;5214286;28;20221;-49
2023/05/25 07:28:20;;;;;;;6.70;3.47;;;33.70;28.70;;;;;;5214257;28;20199;-50
2023/05/25 07:30:51;;;;;;;6.03;3.57;;;33.70;28.30;;;;;;5216571;28;20213;-50
2023/05/25 07:33:22;;;;;;;9.33;3.40;;;33.50;27.50;;;;;;5209273;28;20252;-50
2023/05/25 07:35:52;;;;;;;7.60;3.40;;;33.20;29.10;;;;;;5215171;28;20512;-50
2023/05/25 07:38:23;;;;;;;4.20;3.10;;;33.40;28.00;;;;;;5215495;28;20202;-49
2023/05/25 07:40:54;;;;;;;12.50;3.63;;;33.90;27.80;;;;;;5216430;28;20186;-50
2023/05/25 07:43:24;;;;;;;4.30;2.93;;;34.00;27.30;;;;;;5216715;28;20257;-50
2023/05/25 07:45:55;;;;;;;9.10;3.47;;;33.30;27.50;;;;;;5198819;28;20915;-50
2023/05/25 07:48:25;;;;;;;10.13;3.33;;;31.10;28.80;;;;;;5217648;28;20256;-49
2023/05/25 07:50:56;;;;;;;6.20;3.33;;;30.60;30.30;;;;;;5215966;28;20233;-48
2023/05/25 07:53:27;;;;;;;6.67;3.50;;;29.40;30.50;;;;;;5213986;28;20268;-48
2023/05/25 07:55:57;;;;;;;11.03;3.70;;;27.50;33.60;;;;;;5212389;28;20190;-49
2023/05/25 07:58:28;;;;;;;3.73;2.67;;;26.40;34.30;;;;;;5214717;28;20187;-49
2023/05/25 08:00:58;;;;;;;6.43;3.23;;;26.10;35.50;;;;;;5212365;28;20233;-49
2023/05/25 08:03:29;;;;;;;6.93;3.40;;;27.70;34.60;;;;;;5214814;28;20278;-48
2023/05/25 08:06:00;;;;;;;11.10;3.30;;;28.90;32.10;;;;;;5222059;28;20175;-48
2023/05/25 08:08:30;;;;;;;13.70;2.87;;;28.10;32.10;;;;;;5214374;28;20297;-49
2023/05/25 08:11:01;;;;;;;10.13;3.17;;;27.90;34.40;;;;;;5209743;28;20505;-50
2023/05/25 08:13:32;;;;;;;6.30;3.47;;;29.80;32.70;;;;;;5215317;28;20265;-49
2023/05/25 08:16:03;;;;;;;9.43;4.33;;;28.90;31.20;;;;;;5218052;28;20614;-49
2023/05/25 08:18:34;;;;;;;20.73;9.70;;;26.50;34.00;;;;;;5219634;28;20571;-47
2023/05/25 08:21:05;;;;;;;9.10;3.40;;;24.90;37.00;;;;;;5220521;28;20651;-48
2023/05/25 08:23:41;;;;;;;10.33;5.50;;;24.20;38.90;;;;;;5221595;28;20445;-50
2023/05/25 08:26:11;;;;;;;5.87;3.30;;;24.00;39.50;;;;;;5221990;28;21118;-49
2023/05/25 08:28:42;;;;;;;11.00;3.40;;;26.00;37.00;;;;;;5213694;28;20614;-49
2023/05/25 08:31:13;;;;;;;11.50;3.20;;;28.40;33.90;;;;;;5209121;28;20171;-49
2023/05/25 08:33:43;;;;;;;4.13;2.87;;;30.00;30.80;;;;;;5216036;28;20194;-50
2023/05/25 08:36:14;;;;;;;7.77;3.20;;;29.60;29.90;;;;;;5224404;28;20175;-50
2023/05/25 08:38:45;;;;;;;8.13;3.47;;;28.60;31.60;;;;;;5221134;28;20192;-48
2023/05/25 08:41:16;;;;;;;6.13;2.47;;;28.60;31.90;;;;;;5222434;28;20482;-49
2023/05/25 08:43:47;;;;;;;7.40;3.27;;;29.30;31.40;;;;;;5222480;28;20187;-50
2023/05/25 08:46:29;;;;;;;9.10;3.20;;;27.30;32.80;;;;;;5202848;28;20239;-49
2023/05/25 08:49:10;;;;;;;3.37;2.43;;;25.20;35.80;;;;;;5224677;28;20204;-49
2023/05/25 08:51:46;;;;;;;3.00;2.63;;;24.10;38.20;;;;;;5220396;28;20462;-49
2023/05/25 08:54:21;;;;;;;6.30;3.00;;;23.40;38.90;;;;;;5214075;28;20433;-49
2023/05/25 08:56:58;;;;;;;4.10;2.67;;;23.10;39.90;;;;;;5217409;28;20444;-50
2023/05/25 08:59:40;;;;;;;10.93;2.87;;;23.20;39.70;;;;;;5220806;28;20606;-49
2023/05/25 09:02:36;;;;;;;5.00;3.43;;;23.20;40.30;;;;;;5219386;28;20437;-50
2023/05/25 09:05:08;;;;;;;6.80;4.10;;;23.00;41.40;;;;;;5222381;28;20554;-49
2023/05/25 09:07:41;;;;;;;8.60;3.20;;;22.40;41.20;;;;;;5206407;28;20554;-49
2023/05/25 09:10:13;;;;;;;7.17;3.40;;;21.30;43.20;;;;;;5213542;28;20447;-49
2023/05/25 09:12:45;;;;;;;7.17;3.40;;;20.90;44.40;;;;;;5211951;28;20518;-48
2023/05/25 09:15:16;;;;;;;12.20;3.70;;;21.10;44.00;;;;;;5211897;28;20446;-49
2023/05/25 09:17:47;;;;;;;4.00;2.27;;;21.00;43.30;;;;;;5215997;28;20452;-49
2023/05/25 09:20:18;;;;;;;8.10;3.10;;;21.40;43.60;;;;;;5217357;28;20986;-49
2023/05/25 09:22:49;;;;;;;8.90;3.70;;;21.80;43.10;;;;;;5218040;28;20199;-50
2023/05/25 09:25:21;;;;;;;7.43;3.53;;;21.50;43.30;;;;;;5221531;28;21105;-47
2023/05/25 09:27:52;;;;;;;11.37;4.70;;;21.30;44.10;;;;;;5215435;28;20461;-47
2023/05/25 09:30:24;;;;;;;7.97;3.63;;;20.50;45.20;;;;;;5213685;28;20494;-47
2023/05/25 09:32:55;;;;;;;17.80;4.90;;;20.30;46.20;;;;;;5217016;28;20457;-50
2023/05/25 09:35:26;;;;;;;7.70;3.57;;;20.30;46.40;;;;;;5216149;28;20426;-46
2023/05/25 09:37:57;;;;;;;9.47;3.50;;;20.70;46.80;;;;;;5217393;28;20702;-47
2023/05/25 09:40:29;;;;;;;11.27;4.07;;;20.90;45.80;;;;;;5213698;28;20187;-47
2023/05/25 09:43:01;;;;;;;7.93;3.87;;;20.90;45.80;;;;;;5220520;28;20440;-47
2023/05/25 09:45:32;;;;;;;10.03;4.73;;;20.90;46.70;;;;;;5217474;28;20574;-47
2023/05/25 09:48:04;;;;;;;10.27;4.53;;;21.00;47.00;;;;;;5217761;28;20485;-46
2023/05/25 09:50:35;;;;;;;7.27;4.40;;;20.70;46.80;;;;;;5211117;28;20279;-46
2023/05/25 09:53:06;;;;;;;9.90;5.10;;;20.80;47.70;;;;;;5215126;28;20469;-46
2023/05/25 09:55:37;;;;;;;6.53;4.00;;;21.30;47.10;;;;;;5217128;28;20237;-46
2023/05/25 09:58:08;;;;;;;10.00;4.33;;;21.70;46.40;;;;;;5213126;28;20585;-46
2023/05/25 10:00:39;;;;;;;12.40;4.40;;;22.00;46.20;;;;;;5214732;28;20187;-48
2023/05/25 10:03:13;;;;;;;5.90;4.30;;;22.30;45.80;;;;;;5218420;28;20223;-46
2023/05/25 10:05:44;;;;;;;13.27;5.40;;;22.60;44.80;;;;;;5211738;28;20964;-46
2023/05/25 10:08:18;;;;;;;5.47;3.43;;;21.90;44.70;;;;;;5215276;28;20452;-47
2023/05/25 10:10:49;;;;;;;10.83;4.07;;;21.40;44.10;;;;;;5218341;28;20458;-47
2023/05/25 10:13:24;;;;;;;4.37;3.13;;;20.90;44.80;;;;;;5218098;28;20523;-47
2023/05/25 10:15:55;;;;;;;9.07;4.20;;;20.70;45.40;;;;;;5222981;28;20436;-46
2023/05/25 10:18:34;;;;;;;14.90;4.37;;;20.70;45.70;;;;;;5221743;28;20464;-48
2023/05/25 10:21:08;;;;;;;13.27;4.93;;;20.70;46.10;;;;;;5213502;28;20434;-47
2023/05/25 10:23:46;;;;;;;4.57;3.20;;;20.80;46.40;;;;;;5217543;28;20445;-47
2023/05/25 10:26:25;;;;;;;17.33;8.47;;;20.70;46.30;;;;;;5216470;28;20529;-47
2023/05/25 10:29:00;;;;;;;15.63;4.40;;;20.50;46.90;;;;;;5229419;28;20613;-48
2023/05/25 10:31:32;;;;;;;5.33;3.13;;;20.20;47.30;;;;;;5219067;28;20510;-47
2023/05/25 10:34:03;;;;;;;15.27;4.80;;;20.00;47.90;;;;;;5222529;28;21381;-47
2023/05/25 10:36:36;;;;;;;6.83;4.10;;;20.00;48.90;;;;;;5222145;28;20532;-48
2023/05/25 10:39:08;;;;;;;6.80;4.73;;;20.10;48.90;;;;;;5216341;28;20210;-46
2023/05/25 10:41:40;;;;;;;6.80;3.40;;;20.10;48.20;;;;;;5216219;28;20444;-47
2023/05/25 10:44:12;;;;;;;5.77;3.60;;;20.30;48.60;;;;;;5215836;28;20444;-47
2023/05/25 10:46:43;;;;;;;8.63;4.03;;;20.10;48.10;;;;;;5217361;28;20472;-49
2023/05/25 10:49:25;;;;;;;13.03;6.40;;;20.10;47.80;;;;;;5213961;28;20466;-46
2023/05/25 10:52:00;;;;;;;18.33;4.37;;;20.00;47.80;;;;;;5217553;28;20470;-47
2023/05/25 10:54:35;;;;;;;6.63;3.80;;;19.70;48.40;;;;;;5232400;28;20496;-46
2023/05/25 10:57:10;;;;;;;11.30;4.60;;;19.90;48.60;;;;;;5220763;28;20515;-47
2023/05/25 10:59:43;;;;;;;5.70;3.33;;;20.00;48.20;;;;;;5218239;28;20456;-49
2023/05/25 11:02:15;;;;;;;4.43;3.30;;;20.10;47.80;;;;;;5213318;28;20448;-49
2023/05/25 11:04:47;;;;;;;9.30;3.17;;;20.00;48.10;;;;;;5218487;28;20441;-48
2023/05/25 11:07:20;;;;;;;4.00;3.57;;;19.90;47.80;;;;;;5219966;28;20973;-49
2023/05/25 11:09:57;;;;;;;4.30;3.47;;;19.70;48.40;;;;;;5219988;28;20436;-48
2023/05/25 11:12:27;;;;;;;8.00;3.97;;;19.70;48.70;;;;;;5218861;28;21083;-48
2023/05/25 11:15:10;;;;;;;4.83;3.67;;;20.00;49.00;;;;;;5216768;28;20440;-46
2023/05/25 11:18:00;;;;;;;12.90;5.20;;;20.20;48.40;;;;;;5212814;28;20222;-47
2023/05/25 11:20:30;;;;;;;7.00;4.13;;;20.40;47.80;;;;;;5212039;28;20446;-48
2023/05/25 11:23:22;;;;;;;10.10;3.80;;;19.80;48.00;;;;;;5213579;28;20846;-47
2023/05/25 11:26:03;;;;;;;8.73;4.87;;;19.60;49.40;;;;;;5215413;28;20194;-47
2023/05/25 11:28:43;;;;;;;8.37;4.30;;;19.50;49.50;;;;;;5216392;28;20452;-46
2023/05/25 11:31:16;;;;;;;8.80;4.73;;;19.70;49.40;;;;;;5214040;28;20436;-48
2023/05/25 11:33:47;;;;;;;6.80;3.70;;;19.80;49.80;;;;;;5211716;28;21074;-49
2023/05/25 11:36:19;;;;;;;11.60;6.80;;;20.10;49.40;;;;;;5217069;28;20429;-49
2023/05/25 11:38:51;;;;;;;6.83;4.10;;;20.30;49.00;;;;;;5219979;28;20210;-47
2023/05/25 11:41:22;;;;;;;7.97;3.43;;;20.70;48.50;;;;;;5217224;28;20440;-48
2023/05/25 11:43:53;;;;;;;5.43;3.47;;;20.90;47.70;;;;;;5216362;28;20449;-48
2023/05/25 11:46:23;;;;;;;9.10;4.00;;;21.30;47.50;;;;;;5217033;28;20437;-48
2023/05/25 11:48:54;;;;;;;7.30;3.53;;;21.40;47.20;;;;;;5214262;28;20202;-48
2023/05/25 11:51:29;;;;;;;7.37;3.77;;;21.50;47.00;;;;;;5217323;28;20248;-47
2023/05/25 11:54:00;;;;;;;10.53;4.00;;;21.20;47.10;;;;;;5211842;28;20225;-49
2023/05/25 11:56:32;;;;;;;5.83;3.60;;;20.80;48.50;;;;;;5219636;28;20950;-49
2023/05/25 11:59:06;;;;;;;4.10;3.33;;;20.80;48.60;;;;;;5214147;28;20297;-46
2023/05/25 12:01:37;;;;;;;12.17;4.63;;;21.20;48.70;;;;;;5207577;28;20456;-48
2023/05/25 12:04:10;;;;;;;6.90;3.60;;;21.40;48.20;;;;;;5214904;28;20502;-48
2023/05/25 12:06:40;;;;;;;8.43;3.90;;;21.50;48.10;;;;;;5215677;28;20270;-48
2023/05/25 12:09:11;;;;;;;13.70;5.90;;;21.50;47.80;;;;;;5212911;28;20556;-47
2023/05/25 12:11:44;;;;;;;21.33;9.80;;;21.10;48.00;;;;;;5213442;28;20272;-47
2023/05/25 12:14:15;;;;;;;9.50;6.27;;;20.80;48.70;;;;;;5220002;28;20171;-48
2023/05/25 12:16:46;;;;;;;7.77;4.80;;;20.90;49.30;;;;;;5219355;28;20957;-47
2023/05/25 12:19:17;;;;;;;12.93;4.40;;;20.60;49.10;;;;;;5231786;22;20486;-48
2023/05/25 12:21:50;;;;;;;11.57;4.30;;;20.10;49.40;;;;;;5217456;28;20666;-47
2023/05/25 12:24:21;;;;;;;7.80;4.27;;;20.10;50.20;;;;;;5225520;28;20461;-47
2023/05/25 12:26:57;;;;;;;16.03;4.80;;;20.00;51.40;;;;;;5212132;28;20464;-47
2023/05/25 12:29:28;;;;;;;8.10;4.23;;;19.90;52.30;;;;;;5220329;28;20540;-46
2023/05/25 12:32:04;;;;;;;9.97;4.17;;;20.20;52.60;;;;;;5214758;28;21069;-46
2023/05/25 12:34:35;;;;;;;7.30;4.20;;;20.50;51.80;;;;;;5216753;28;20178;-49
2023/05/25 12:37:20;;;;;;;13.63;5.47;;;20.70;52.00;;;;;;5219987;28;20430;-47
2023/05/25 12:39:51;;;;;;;7.90;4.97;;;20.80;51.60;;;;;;5222458;28;20433;-49
2023/05/25 12:42:25;;;;;;;13.53;5.37;;;20.70;52.00;;;;;;5220439;28;20536;-48
2023/05/25 12:44:56;;;;;;;7.63;5.60;;;20.50;52.10;;;;;;5199424;28;20191;-47
2023/05/25 12:47:29;;;;;;;10.00;4.60;;;20.30;52.90;;;;;;5219398;28;20995;-49
2023/05/25 12:50:11;;;;;;;11.63;5.60;;;20.10;53.40;;;;;;5216251;28;20476;-48
2023/05/25 12:52:43;;;;;;;5.70;4.43;;;20.10;53.60;;;;;;5209110;28;20870;-48
2023/05/25 12:55:24;;;;;;;8.00;5.20;;;19.70;53.80;;;;;;5215783;28;20437;-49
2023/05/25 12:57:58;;;;;;;7.17;5.00;;;19.50;54.10;;;;;;5214600;28;20530;-49
2023/05/25 13:00:36;;;;;;;9.77;5.20;;;19.30;54.80;;;;;;5216649;28;20441;-49
2023/05/25 13:03:07;;;;;;;12.33;5.90;;;19.30;55.30;;;;;;5219849;28;20433;-48
2023/05/25 13:05:38;;;;;;;13.80;6.83;;;19.20;55.80;;;;;;5220675;28;20484;-49
2023/05/25 13:08:09;;;;;;;9.93;5.73;;;19.40;55.60;;;;;;5220993;28;20488;-47